Terminal Aerodrome Forecast
Issued by NWS Charleston, WV

Current Version | Previous Version | Graphics & Text | Print | Product List | Glossary On
Versions: 1 2 3 4 5 6 7 8 9 10 11 12 13 14 15 16 17 18 19 20 21 22 23 24 25 26 27 28 29 30 31 32 33 34 35
000
FTUS41 KRLX 281657 CCA
TAFHTS
TAF COR
KHTS 281657Z 2817/2912 23006KT 4SM SHRA BR VCTS SCT008 OVC025CB
      TEMPO 2817/2820 1 1/2SM SHRA BR BKN006 OVC020
     FM290200 00000KT 3SM SHRA BR SCT007 OVC015
     FM290700 00000KT 1SM BR OVC007=

USA.gov is the U.S. government's official web portal to all federal, state and local government web resources and services.